createdAt,value
2023-03-27T00:02:23.332Z,-0.40
2023-03-27T00:04:50.504Z,-0.40
2023-03-27T00:07:17.390Z,-0.40
2023-03-27T00:09:46.289Z,-0.50
2023-03-27T00:12:13.215Z,-0.40
2023-03-27T00:14:40.206Z,-0.50
2023-03-27T00:17:07.111Z,-0.50
2023-03-27T00:19:34.034Z,-0.40
2023-03-27T00:22:01.139Z,-0.50
2023-03-27T00:24:28.466Z,-0.50
2023-03-27T00:26:55.549Z,-0.50
2023-03-27T00:29:22.601Z,-0.50
2023-03-27T00:31:49.588Z,-0.50
2023-03-27T00:34:16.548Z,-0.50
2023-03-27T00:36:43.826Z,-0.50
2023-03-27T00:39:11.213Z,-0.60
2023-03-27T00:41:38.188Z,-0.50
2023-03-27T00:44:25.630Z,-0.50
2023-03-27T00:46:55.229Z,-0.50
2023-03-27T00:49:23.840Z,-0.50
2023-03-27T00:51:53.090Z,-0.50
2023-03-27T00:54:26.967Z,-0.60
2023-03-27T00:56:59.120Z,-0.60
2023-03-27T00:59:31.822Z,-0.50
2023-03-27T01:02:01.698Z,-0.50
2023-03-27T01:04:31.414Z,-0.50
2023-03-27T01:07:00.955Z,-0.50
2023-03-27T01:09:28.976Z,-0.50
2023-03-27T01:12:13.852Z,-0.50
2023-03-27T01:14:46.748Z,-0.50
2023-03-27T01:17:26.211Z,-0.50
2023-03-27T01:20:01.011Z,-0.50
2023-03-27T01:22:49.119Z,-0.60
2023-03-27T01:25:39.890Z,-0.60
2023-03-27T01:28:26.383Z,-0.60
2023-03-27T01:31:08.142Z,-0.50
2023-03-27T01:33:48.119Z,-0.60
2023-03-27T01:36:20.264Z,-0.60
2023-03-27T01:39:05.421Z,-0.60
2023-03-27T01:41:43.448Z,-0.60
2023-03-27T01:44:16.994Z,-0.50
2023-03-27T01:46:54.819Z,-0.60
2023-03-27T01:49:31.238Z,-0.60
2023-03-27T01:52:05.547Z,-0.60
2023-03-27T01:54:35.998Z,-0.70
2023-03-27T01:57:22.230Z,-0.60
2023-03-27T01:59:58.596Z,-0.70
2023-03-27T02:02:53.936Z,-0.70
2023-03-27T02:05:56.390Z,-0.70
2023-03-27T02:08:35.117Z,-0.80
2023-03-27T02:11:12.010Z,-0.70
2023-03-27T02:13:45.281Z,-0.70
2023-03-27T02:16:17.781Z,-0.70
2023-03-27T02:18:51.842Z,-0.70
2023-03-27T02:21:18.821Z,-0.70
2023-03-27T02:23:47.506Z,-0.80
2023-03-27T02:26:14.578Z,-0.70
2023-03-27T02:28:57.349Z,-0.70
2023-03-27T02:31:42.028Z,-0.80
2023-03-27T02:34:36.615Z,-0.80
2023-03-27T02:37:32.364Z,-0.80
2023-03-27T02:40:59.631Z,-0.80
2023-03-27T02:43:52.452Z,-0.80
2023-03-27T02:46:52.678Z,-0.90
2023-03-27T02:49:29.548Z,-0.80
2023-03-27T02:52:03.949Z,-0.80
2023-03-27T02:54:44.393Z,-0.90
2023-03-27T02:57:18.661Z,-0.90
2023-03-27T03:00:12.625Z,-0.90
2023-03-27T03:02:42.078Z,-0.90
2023-03-27T03:05:20.786Z,-0.80
2023-03-27T03:07:48.558Z,-0.90
2023-03-27T03:10:16.847Z,-0.90
2023-03-27T03:12:43.638Z,-0.90
2023-03-27T03:15:11.425Z,-0.90
2023-03-27T03:17:38.440Z,-1.00
2023-03-27T03:20:07.334Z,-1.00
2023-03-27T03:22:34.494Z,-1.00
2023-03-27T03:25:01.347Z,-1.10
2023-03-27T03:27:29.124Z,-1.10
2023-03-27T03:30:04.583Z,-1.00
2023-03-27T03:32:39.562Z,-1.00
2023-03-27T03:35:09.741Z,-1.00
2023-03-27T03:37:38.882Z,-1.10
2023-03-27T03:40:14.687Z,-1.00
2023-03-27T03:42:51.149Z,-1.00
2023-03-27T03:45:21.194Z,-1.00
2023-03-27T03:47:48.274Z,-1.00
2023-03-27T03:50:15.925Z,-1.00
2023-03-27T03:52:43.320Z,-1.00
2023-03-27T03:55:11.989Z,-1.00
2023-03-27T03:57:39.047Z,-1.00
2023-03-27T04:00:14.315Z,-1.00
2023-03-27T04:02:44.070Z,-1.00
2023-03-27T04:05:13.466Z,-1.00
2023-03-27T04:07:41.270Z,-1.00
2023-03-27T04:10:27.777Z,-1.10
2023-03-27T04:12:55.491Z,-1.10
2023-03-27T04:15:28.772Z,-1.10
2023-03-27T04:18:10.096Z,-1.10
2023-03-27T04:20:38.228Z,-1.10
2023-03-27T04:23:08.420Z,-1.10
2023-03-27T04:25:38.284Z,-1.10
2023-03-27T04:28:05.808Z,-1.00
2023-03-27T04:30:44.043Z,-1.00
2023-03-27T04:33:30.809Z,-1.00
2023-03-27T04:36:10.827Z,-1.10
2023-03-27T04:38:52.210Z,-1.10
2023-03-27T04:41:19.145Z,-1.10
2023-03-27T04:43:46.235Z,-1.00
2023-03-27T04:46:13.314Z,-1.10
2023-03-27T04:48:42.655Z,-1.00
2023-03-27T04:51:26.683Z,-1.00
2023-03-27T04:53:56.450Z,-1.00
2023-03-27T04:56:25.014Z,-1.00
2023-03-27T04:58:54.358Z,-1.10
2023-03-27T05:01:22.835Z,-1.10
2023-03-27T05:04:10.180Z,-1.20
2023-03-27T05:06:49.017Z,-1.20
2023-03-27T05:09:17.252Z,-1.10
2023-03-27T05:11:44.792Z,-1.10
2023-03-27T05:14:11.653Z,-1.10
2023-03-27T05:16:41.283Z,-1.10
2023-03-27T05:19:09.571Z,-1.10
2023-03-27T05:21:41.115Z,-1.10
2023-03-27T05:24:11.127Z,-1.20
2023-03-27T05:26:39.277Z,-1.20
2023-03-27T05:29:06.574Z,-1.30
2023-03-27T05:31:37.099Z,-1.30
2023-03-27T05:34:22.443Z,-1.30
2023-03-27T05:36:53.029Z,-1.30
2023-03-27T05:39:20.271Z,-1.20
2023-03-27T05:41:47.543Z,-1.30
2023-03-27T05:44:22.262Z,-1.30
2023-03-27T05:46:49.908Z,-1.30
2023-03-27T05:49:25.764Z,-1.30
2023-03-27T05:51:58.186Z,-1.30
2023-03-27T05:54:25.519Z,-1.30
2023-03-27T05:57:00.222Z,-1.40
2023-03-27T05:59:27.314Z,-1.30
2023-03-27T06:02:00.344Z,-1.30
2023-03-27T06:04:39.202Z,-1.30
2023-03-27T06:07:10.470Z,-1.20
2023-03-27T06:09:37.481Z,-1.20
2023-03-27T06:12:24.853Z,-1.30
2023-03-27T06:14:59.434Z,-1.30
2023-03-27T06:17:34.920Z,-1.30
2023-03-27T06:20:11.145Z,-1.20
2023-03-27T06:22:49.898Z,-1.20
2023-03-27T06:25:20.270Z,-1.20
2023-03-27T06:27:48.563Z,-1.30
2023-03-27T06:30:18.739Z,-1.30
2023-03-27T06:33:01.280Z,-1.30
2023-03-27T06:35:30.892Z,-1.30
2023-03-27T06:38:10.631Z,-1.30
2023-03-27T06:40:39.569Z,-1.30
2023-03-27T06:43:08.572Z,-1.30
2023-03-27T06:45:49.194Z,-1.30
2023-03-27T06:48:54.830Z,-1.30
2023-03-27T06:51:23.149Z,-1.30
2023-03-27T06:53:51.761Z,-1.30
2023-03-27T06:56:19.112Z,-1.40
2023-03-27T06:59:12.160Z,-1.40
2023-03-27T07:01:39.445Z,-1.40
2023-03-27T07:04:29.542Z,-1.30
2023-03-27T07:07:12.381Z,-1.30
2023-03-27T07:09:42.154Z,-1.30
2023-03-27T07:12:11.091Z,-1.40
2023-03-27T07:14:39.244Z,-1.30
2023-03-27T07:17:08.141Z,-1.40
2023-03-27T07:19:50.023Z,-1.40
2023-03-27T07:22:19.150Z,-1.40
2023-03-27T07:24:47.517Z,-1.40
2023-03-27T07:27:16.429Z,-1.40
2023-03-27T07:29:43.965Z,-1.30
2023-03-27T07:32:29.797Z,-1.40
2023-03-27T07:35:05.304Z,-1.40
2023-03-27T07:37:53.742Z,-1.40
2023-03-27T07:40:46.821Z,-1.30
2023-03-27T07:43:42.792Z,-1.40
2023-03-27T07:46:10.330Z,-1.30
2023-03-27T07:48:37.207Z,-1.30
2023-03-27T07:53:35.687Z,-1.40
2023-03-27T07:56:28.974Z,-1.40
2023-03-27T07:59:16.279Z,-1.40
2023-03-27T08:01:43.553Z,-1.30
2023-03-27T08:04:10.950Z,-1.20
2023-03-27T08:06:40.625Z,-1.20
2023-03-27T08:09:13.316Z,-1.20
2023-03-27T08:11:41.438Z,-1.20
2023-03-27T08:14:11.393Z,-1.20
2023-03-27T08:16:39.107Z,-1.20
2023-03-27T08:19:07.118Z,-1.20
2023-03-27T08:21:38.576Z,-1.20
2023-03-27T08:24:06.012Z,-1.10
2023-03-27T08:26:52.767Z,-1.00
2023-03-27T08:29:20.053Z,-1.00
2023-03-27T08:31:47.976Z,-1.00
2023-03-27T08:34:15.638Z,-0.90
2023-03-27T08:36:48.834Z,-0.90
2023-03-27T08:39:17.004Z,-0.90
2023-03-27T08:41:55.258Z,-1.00
2023-03-27T08:44:31.909Z,-0.90
2023-03-27T08:47:01.860Z,-0.80
2023-03-27T08:49:36.312Z,-0.80
2023-03-27T08:52:29.684Z,-0.90
2023-03-27T08:55:06.480Z,-0.90
2023-03-27T08:57:41.069Z,-0.80
2023-03-27T09:00:22.886Z,-0.80
2023-03-27T09:03:15.177Z,-0.70
2023-03-27T09:06:02.545Z,-0.80
2023-03-27T09:08:56.897Z,-0.80
2023-03-27T09:11:56.667Z,-1.00
2023-03-27T09:14:36.033Z,-0.90
2023-03-27T09:17:14.377Z,-1.00
2023-03-27T09:19:50.930Z,-0.90
2023-03-27T09:22:27.550Z,-0.60
2023-03-27T09:25:21.966Z,-0.60
2023-03-27T09:28:40.041Z,-0.60
2023-03-27T09:31:29.145Z,-0.90
2023-03-27T09:34:01.056Z,-0.90
2023-03-27T09:36:29.046Z,-0.90
2023-03-27T09:39:08.160Z,-1.00
2023-03-27T09:41:44.431Z,-0.90
2023-03-27T09:44:28.122Z,-0.90
2023-03-27T09:47:19.455Z,-0.80
2023-03-27T09:49:56.314Z,-0.70
2023-03-27T09:52:38.069Z,-0.70
2023-03-27T09:55:31.455Z,-0.80
2023-03-27T09:58:15.544Z,-0.80
2023-03-27T10:00:43.160Z,-0.80
2023-03-27T10:03:20.692Z,-0.80
2023-03-27T10:06:07.837Z,-0.90
2023-03-27T10:08:50.399Z,-0.90
2023-03-27T10:11:33.807Z,-0.90
2023-03-27T10:14:18.818Z,-0.90
2023-03-27T10:16:47.855Z,-0.80
2023-03-27T10:19:39.906Z,-0.80
2023-03-27T10:22:28.971Z,-0.80
2023-03-27T10:25:00.770Z,-0.70
2023-03-27T10:27:53.409Z,-0.60
2023-03-27T10:30:27.465Z,-0.70
2023-03-27T10:33:00.764Z,-0.70
2023-03-27T10:35:49.791Z,-0.70
2023-03-27T10:38:22.785Z,-0.60
2023-03-27T10:41:28.572Z,-0.50
2023-03-27T10:43:58.419Z,-0.80
2023-03-27T10:46:28.004Z,-0.90
2023-03-27T10:49:20.917Z,-1.00
2023-03-27T10:51:50.909Z,-1.00
2023-03-27T10:54:58.016Z,-0.80
2023-03-27T10:57:30.134Z,-0.80
2023-03-27T11:00:19.568Z,-0.80
2023-03-27T11:03:14.903Z,-0.80
2023-03-27T11:05:46.648Z,-0.80
2023-03-27T11:08:49.942Z,-0.80
2023-03-27T11:11:27.039Z,-0.80
2023-03-27T11:14:02.132Z,-0.90
2023-03-27T11:16:39.234Z,-0.90
2023-03-27T11:19:45.520Z,-0.80
2023-03-27T11:22:32.579Z,-0.80
2023-03-27T11:25:31.947Z,-0.80
2023-03-27T11:28:12.136Z,-0.80
2023-03-27T11:30:44.403Z,-0.80
2023-03-27T11:33:32.231Z,-0.60
2023-03-27T11:36:26.162Z,-0.40
2023-03-27T11:39:01.645Z,-0.50
2023-03-27T11:41:28.552Z,-0.70
2023-03-27T11:44:00.557Z,-0.50
2023-03-27T11:47:04.628Z,-0.50
2023-03-27T11:49:38.808Z,-0.40
2023-03-27T11:52:22.202Z,-0.50
2023-03-27T11:55:18.135Z,-0.40
2023-03-27T11:58:17.538Z,-0.50
2023-03-27T12:00:54.867Z,-0.40
2023-03-27T12:03:49.017Z,-0.50
2023-03-27T12:06:35.011Z,-0.30
2023-03-27T12:09:46.082Z,-0.30
2023-03-27T12:13:14.311Z,-0.40
2023-03-27T12:16:02.718Z,-0.60
2023-03-27T12:18:45.287Z,-0.50
2023-03-27T12:21:41.522Z,-0.60
2023-03-27T12:24:21.642Z,-0.50
2023-03-27T12:27:29.895Z,-0.30
2023-03-27T12:30:32.364Z,0.00
2023-03-27T12:33:18.237Z,-0.10
2023-03-27T12:35:49.902Z,-0.80
2023-03-27T12:38:26.257Z,-1.30
2023-03-27T12:41:01.496Z,-1.30
2023-03-27T12:43:39.553Z,-1.40
2023-03-27T12:46:26.422Z,-1.40
2023-03-27T12:48:58.212Z,-1.30
2023-03-27T12:52:05.368Z,-1.10
2023-03-27T12:55:18.501Z,-0.80
2023-03-27T12:57:54.263Z,-0.70
2023-03-27T13:00:41.287Z,-0.40
2023-03-27T13:03:33.309Z,0.00
2023-03-27T13:06:12.815Z,-0.20
2023-03-27T13:09:03.021Z,-0.70
2023-03-27T13:12:00.335Z,-1.00
2023-03-27T13:15:06.904Z,-1.00
2023-03-27T13:18:10.516Z,-0.80
2023-03-27T13:20:50.707Z,-0.60
2023-03-27T13:23:42.995Z,-0.60
2023-03-27T13:26:21.500Z,-0.50
2023-03-27T13:28:54.319Z,-0.50
2023-03-27T13:31:47.030Z,-0.50
2023-03-27T13:34:38.580Z,-0.60
2023-03-27T13:37:11.890Z,-0.50
2023-03-27T13:40:07.658Z,-0.40
2023-03-27T13:42:41.909Z,-0.10
2023-03-27T13:45:26.016Z,0.20
2023-03-27T13:48:39.672Z,0.30
2023-03-27T13:51:31.561Z,0.40
2023-03-27T13:54:26.542Z,0.40
2023-03-27T13:57:04.168Z,0.00
2023-03-27T14:00:06.314Z,-0.10
2023-03-27T14:03:03.266Z,0.00
2023-03-27T14:06:03.593Z,0.40
2023-03-27T14:09:08.283Z,0.30
2023-03-27T14:11:57.823Z,0.00
2023-03-27T14:15:09.940Z,-0.30
2023-03-27T14:17:56.385Z,-0.40
2023-03-27T14:20:39.740Z,-0.30
2023-03-27T14:26:24.668Z,0.00
2023-03-27T14:29:02.162Z,-0.10
2023-03-27T14:31:38.251Z,-0.10
2023-03-27T14:34:12.247Z,-0.10
2023-03-27T14:36:46.069Z,-0.10
2023-03-27T14:39:24.452Z,-0.10
2023-03-27T14:42:02.796Z,0.00
2023-03-27T14:44:33.244Z,-0.10
2023-03-27T14:47:09.965Z,-0.10
2023-03-27T14:49:49.069Z,-0.10
2023-03-27T14:52:25.793Z,0.00
2023-03-27T14:55:19.904Z,0.10
2023-03-27T14:57:57.695Z,0.10
2023-03-27T15:00:32.089Z,0.10
2023-03-27T15:03:06.210Z,0.10
2023-03-27T15:05:33.448Z,-0.10
2023-03-27T15:08:02.847Z,-0.20
2023-03-27T15:11:03.664Z,-0.20
2023-03-27T15:13:38.599Z,-0.20
2023-03-27T15:16:19.798Z,-0.30
2023-03-27T15:19:12.135Z,-0.20
2023-03-27T15:21:50.975Z,-0.30
2023-03-27T15:24:43.144Z,-0.30
2023-03-27T15:27:17.587Z,-0.20
2023-03-27T15:29:53.408Z,-0.10
2023-03-27T15:32:22.362Z,-0.10
2023-03-27T15:34:56.778Z,-0.20
2023-03-27T15:37:26.174Z,-0.20
2023-03-27T15:40:09.080Z,-0.10
2023-03-27T15:42:51.460Z,-0.20
2023-03-27T15:45:23.020Z,-0.10
2023-03-27T15:48:06.730Z,-0.10
2023-03-27T15:50:34.358Z,-0.10
2023-03-27T15:53:02.262Z,-0.10
2023-03-27T15:55:40.654Z,-0.20
2023-03-27T15:58:13.714Z,-0.30
2023-03-27T16:00:47.511Z,-0.30
2023-03-27T16:03:23.170Z,-0.30
2023-03-27T16:05:56.473Z,-0.20
2023-03-27T16:08:36.496Z,-0.20
2023-03-27T16:11:04.648Z,-0.30
2023-03-27T16:13:37.224Z,-0.20
2023-03-27T16:16:24.076Z,-0.30
2023-03-27T16:18:51.890Z,-0.30
2023-03-27T16:21:23.236Z,-0.30
2023-03-27T16:23:50.317Z,-0.40
2023-03-27T16:26:23.399Z,-0.30
2023-03-27T16:28:50.323Z,-0.30
2023-03-27T16:31:19.284Z,-0.30
2023-03-27T16:33:46.513Z,-0.30
2023-03-27T16:36:18.658Z,-0.30
2023-03-27T16:38:46.392Z,-0.30
2023-03-27T16:41:18.297Z,-0.40
2023-03-27T16:43:45.576Z,-0.40
2023-03-27T16:46:24.485Z,-0.50
2023-03-27T16:48:51.993Z,-0.50
2023-03-27T16:51:23.014Z,-0.50
2023-03-27T16:53:50.262Z,-0.60
2023-03-27T16:56:17.164Z,-0.50
2023-03-27T16:58:44.140Z,-0.50
2023-03-27T17:01:11.084Z,-0.60
2023-03-27T17:03:38.434Z,-0.80
2023-03-27T17:06:08.173Z,-0.80
2023-03-27T17:08:36.617Z,-0.70
2023-03-27T17:11:05.469Z,-0.60
2023-03-27T17:13:32.747Z,-0.90
2023-03-27T17:16:00.132Z,-1.10
2023-03-27T17:18:27.252Z,-1.20
2023-03-27T17:20:54.199Z,-1.10
2023-03-27T17:23:22.119Z,-1.10
2023-03-27T17:25:49.198Z,-1.00
2023-03-27T17:28:16.245Z,-1.10
2023-03-27T17:30:56.735Z,-1.30
2023-03-27T17:33:30.767Z,-1.30
2023-03-27T17:35:57.884Z,-1.40
2023-03-27T17:38:24.940Z,-1.30
2023-03-27T17:40:51.924Z,-1.20
2023-03-27T17:43:18.869Z,-1.20
2023-03-27T17:45:45.723Z,-1.40
2023-03-27T17:48:12.772Z,-1.40
2023-03-27T17:50:40.445Z,-1.40
2023-03-27T17:53:07.870Z,-1.40
2023-03-27T17:55:37.805Z,-1.50
2023-03-27T17:58:09.475Z,-1.60
2023-03-27T18:00:38.497Z,-1.60
2023-03-27T18:03:07.292Z,-1.60
2023-03-27T18:05:38.758Z,-1.60
2023-03-27T18:08:07.133Z,-1.60
2023-03-27T18:10:36.520Z,-1.60
2023-03-27T18:13:03.744Z,-1.50
2023-03-27T18:15:30.819Z,-1.70
2023-03-27T18:17:58.197Z,-1.80
2023-03-27T18:20:25.163Z,-1.70
2023-03-27T18:22:51.977Z,-1.70
2023-03-27T18:25:18.852Z,-1.80
2023-03-27T18:27:45.906Z,-1.80
2023-03-27T18:30:15.196Z,-1.90
2023-03-27T18:32:44.039Z,-1.80
2023-03-27T18:35:16.365Z,-1.80
2023-03-27T18:37:44.658Z,-1.70
2023-03-27T18:40:15.148Z,-1.60
2023-03-27T18:42:46.013Z,-1.60
2023-03-27T18:45:14.831Z,-1.60
2023-03-27T18:47:43.145Z,-1.50
2023-03-27T18:50:12.410Z,-1.50
2023-03-27T18:52:40.319Z,-1.50
2023-03-27T18:55:09.216Z,-1.60
2023-03-27T18:57:36.753Z,-1.60
2023-03-27T19:00:07.455Z,-1.60
2023-03-27T19:02:36.301Z,-1.70
2023-03-27T19:05:04.105Z,-1.80
2023-03-27T19:07:31.270Z,-1.80
2023-03-27T19:09:58.804Z,-1.80
2023-03-27T19:12:36.747Z,-1.80
2023-03-27T19:15:33.049Z,-1.70
2023-03-27T19:18:18.650Z,-1.70
2023-03-27T19:21:04.234Z,-1.70
2023-03-27T19:23:42.224Z,-1.80
2023-03-27T19:26:11.088Z,-1.80
2023-03-27T19:28:41.109Z,-1.80
2023-03-27T19:31:09.851Z,-1.70
2023-03-27T19:33:37.353Z,-1.70
2023-03-27T19:36:06.409Z,-1.70
2023-03-27T19:38:33.957Z,-1.80
2023-03-27T19:41:01.974Z,-1.80
2023-03-27T19:43:31.820Z,-1.80
2023-03-27T19:46:14.867Z,-1.80
2023-03-27T19:48:47.726Z,-1.70
2023-03-27T19:51:38.552Z,-1.70
2023-03-27T19:54:05.502Z,-1.70
2023-03-27T19:56:32.539Z,-1.70
2023-03-27T19:58:59.689Z,-1.70
2023-03-27T20:01:28.462Z,-1.70
2023-03-27T20:03:57.088Z,-1.70
2023-03-27T20:06:26.123Z,-1.70
2023-03-27T20:08:53.509Z,-1.70
2023-03-27T20:11:20.719Z,-1.90
2023-03-27T20:13:56.168Z,-1.90
2023-03-27T20:16:28.356Z,-1.90
2023-03-27T20:19:03.642Z,-1.90
2023-03-27T20:21:33.732Z,-1.90
2023-03-27T20:24:00.788Z,-2.00
2023-03-27T20:26:32.436Z,-2.00
2023-03-27T20:29:13.030Z,-2.00
2023-03-27T20:31:40.833Z,-2.00
2023-03-27T20:34:09.218Z,-2.10
2023-03-27T20:36:38.786Z,-2.00
2023-03-27T20:39:18.994Z,-2.00
2023-03-27T20:41:47.382Z,-2.00
2023-03-27T20:44:17.410Z,-2.00
2023-03-27T20:46:51.359Z,-2.00
2023-03-27T20:51:59.579Z,-2.00
2023-03-27T20:54:27.360Z,-2.00
2023-03-27T20:56:54.268Z,-1.90
2023-03-27T20:59:21.605Z,-1.90
2023-03-27T21:01:48.780Z,-1.90
2023-03-27T21:04:15.849Z,-1.90
2023-03-27T21:06:43.145Z,-1.90
2023-03-27T21:09:13.840Z,-1.90
2023-03-27T21:11:40.748Z,-1.80
2023-03-27T21:14:07.951Z,-1.80
2023-03-27T21:16:34.976Z,-1.80
2023-03-27T21:19:01.815Z,-1.80
2023-03-27T21:21:33.505Z,-1.80
2023-03-27T21:24:00.378Z,-1.90
2023-03-27T21:26:27.198Z,-1.90
2023-03-27T21:28:55.285Z,-1.90
2023-03-27T21:31:22.107Z,-1.80
2023-03-27T21:33:48.948Z,-1.80
2023-03-27T21:36:15.872Z,-1.80
2023-03-27T21:38:42.828Z,-1.80
2023-03-27T21:41:14.076Z,-1.90
2023-03-27T21:43:41.132Z,-1.80
2023-03-27T21:46:08.052Z,-1.80
2023-03-27T21:48:34.959Z,-1.80
2023-03-27T21:51:06.799Z,-1.80
2023-03-27T21:53:34.038Z,-1.80
2023-03-27T21:56:01.195Z,-1.70
2023-03-27T21:58:28.446Z,-1.80
2023-03-27T22:00:57.440Z,-1.80
2023-03-27T22:03:25.867Z,-1.70
2023-03-27T22:06:01.492Z,-1.70
2023-03-27T22:08:39.126Z,-1.70
2023-03-27T22:11:06.222Z,-1.80
2023-03-27T22:13:36.232Z,-1.70
2023-03-27T22:16:10.759Z,-1.70
2023-03-27T22:18:37.774Z,-1.70
2023-03-27T22:21:23.190Z,-1.70
2023-03-27T22:23:51.400Z,-1.70
2023-03-27T22:26:24.271Z,-1.70
2023-03-27T22:28:52.556Z,-1.70
2023-03-27T22:31:21.020Z,-1.70
2023-03-27T22:33:48.233Z,-1.70
2023-03-27T22:36:15.752Z,-1.80
2023-03-27T22:38:42.932Z,-1.70
2023-03-27T22:41:11.620Z,-1.70
2023-03-27T22:43:39.021Z,-1.70
2023-03-27T22:46:08.039Z,-1.70
2023-03-27T22:48:35.037Z,-1.70
2023-03-27T22:51:02.432Z,-1.70
2023-03-27T22:53:31.657Z,-1.70
2023-03-27T22:56:00.094Z,-1.70
2023-03-27T22:58:27.980Z,-1.70
2023-03-27T23:00:55.400Z,-1.70
2023-03-27T23:03:23.942Z,-1.70
2023-03-27T23:05:51.466Z,-1.70
2023-03-27T23:08:20.366Z,-1.70
2023-03-27T23:10:53.580Z,-1.70
2023-03-27T23:13:20.408Z,-1.70
2023-03-27T23:15:47.222Z,-1.70
2023-03-27T23:18:14.015Z,-1.70
2023-03-27T23:20:41.091Z,-1.70
2023-03-27T23:23:07.901Z,-1.80
2023-03-27T23:25:34.770Z,-1.80
2023-03-27T23:28:01.706Z,-1.80
2023-03-27T23:30:28.464Z,-1.80
2023-03-27T23:32:55.676Z,-1.80
2023-03-27T23:35:22.582Z,-1.80
2023-03-27T23:37:49.483Z,-1.90
2023-03-27T23:40:16.671Z,-1.90
2023-03-27T23:42:43.548Z,-1.90
2023-03-27T23:45:11.919Z,-1.90
2023-03-27T23:47:39.024Z,-1.90
2023-03-27T23:50:06.376Z,-1.90
2023-03-27T23:52:33.207Z,-1.80
2023-03-27T23:55:00.019Z,-1.80
2023-03-27T23:57:26.813Z,-1.80
2023-03-27T23:59:53.653Z,-1.80
